Time;durP1;ratioP1;P1;durP2;ratioP2;P2;SDS_P1;SDS_P2;PMS_P1;PMS_P2;Temp;Humidity;BMP_temperature;BMP_pressure;BME280_temperature;BME280_humidity;BME280_pressure;Samples;Min_cycle;Max_cycle;Signal;HPM_P1;HPM_P2
2021/11/07 00:00:44;;;;;;;27.97;9.63;;;;;;;;;;5033060;28;20033;-58
2021/11/07 00:03:20;;;;;;;27.03;8.50;;;;;;;;;;5042435;28;20425;-58
2021/11/07 00:08:47;;;;;;;44.20;7.97;;;;;;;;;;5052157;28;20407;-58
2021/11/07 00:11:22;;;;;;;47.30;10.33;;;;;;;;;;5052753;28;20045;-58
2021/11/07 00:13:50;;;;;;;21.33;7.90;;;;;;;;;;5052921;28;20462;-58
2021/11/07 00:16:23;;;;;;;25.53;9.40;;;;;;;;;;5052056;28;20040;-58
2021/11/07 00:19:03;;;;;;;35.90;9.30;;;;;;;;;;5052723;28;20111;-58
2021/11/07 00:21:31;;;;;;;7.93;5.93;;;;;;;;;;5052607;28;20079;-58
2021/11/07 00:24:06;;;;;;;36.33;10.27;;;;;;;;;;5052549;28;20083;-58
2021/11/07 00:29:07;;;;;;;46.20;11.70;;;;;;;;;;5052010;28;20071;-58
2021/11/07 00:36:43;;;;;;;48.60;12.57;;;;;;;;;;5051796;28;20122;-58
2021/11/07 00:41:44;;;;;;;42.27;11.37;;;;;;;;;;5052389;28;20029;-58
2021/11/07 00:44:24;;;;;;;11.33;7.30;;;;;;;;;;5052149;28;20032;-58
2021/11/07 00:46:58;;;;;;;20.60;7.93;;;;;;;;;;5051448;28;20029;-58
2021/11/07 00:57:39;;;;;;;9.80;7.20;;;;;;;;;;5051258;28;20203;-58
2021/11/07 01:00:17;;;;;;;34.50;8.60;;;;;;;;;;5051976;28;20037;-58
2021/11/07 01:02:43;;;;;;;33.17;7.43;;;;;;;;;;5046320;28;20185;-58
2021/11/07 01:05:15;;;;;;;33.13;10.27;;;;;;;;;;5031989;28;20033;-58
2021/11/07 01:07:41;;;;;;;15.87;8.03;;;;;;;;;;5031238;28;20104;-58
2021/11/07 01:10:08;;;;;;;29.57;9.17;;;;;;;;;;5031876;28;20163;-58
2021/11/07 01:12:34;;;;;;;24.17;7.90;;;;;;;;;;5036321;28;20033;-58
2021/11/07 01:15:00;;;;;;;19.80;8.03;;;;;;;;;;5034869;28;20052;-58
2021/11/07 01:17:27;;;;;;;12.10;7.70;;;;;;;;;;5035447;28;20056;-58
2021/11/07 01:19:54;;;;;;;12.87;7.97;;;;;;;;;;5034752;28;20068;-58
2021/11/07 01:22:31;;;;;;;10.17;8.60;;;;;;;;;;5035863;28;20087;-58
2021/11/07 01:25:00;;;;;;;10.30;7.80;;;;;;;;;;5036093;28;20029;-58
2021/11/07 01:27:31;;;;;;;8.90;6.93;;;;;;;;;;5035390;28;20060;-58
2021/11/07 01:30:00;;;;;;;10.60;7.90;;;;;;;;;;5035727;28;20067;-58
2021/11/07 01:32:26;;;;;;;8.53;7.17;;;;;;;;;;5034169;28;20030;-58
2021/11/07 01:35:02;;;;;;;12.00;7.50;;;;;;;;;;5035510;28;20056;-58
2021/11/07 01:37:33;;;;;;;10.43;7.17;;;;;;;;;;5034960;28;20387;-58
2021/11/07 01:40:20;;;;;;;13.03;8.57;;;;;;;;;;5035868;28;20398;-58
2021/11/07 01:42:56;;;;;;;10.00;7.97;;;;;;;;;;5035683;28;20071;-58
2021/11/07 01:45:30;;;;;;;12.47;9.50;;;;;;;;;;5035311;28;20124;-58
2021/11/07 01:48:10;;;;;;;11.33;8.63;;;;;;;;;;5034854;28;20061;-58
2021/11/07 01:50:41;;;;;;;16.03;10.27;;;;;;;;;;5035552;28;20219;-58
2021/11/07 01:53:28;;;;;;;17.00;10.13;;;;;;;;;;5035420;28;20029;-58
2021/11/07 01:55:56;;;;;;;10.80;8.20;;;;;;;;;;5034977;28;20396;-58
2021/11/07 01:58:23;;;;;;;9.23;7.93;;;;;;;;;;5034821;28;20364;-58
2021/11/07 02:00:50;;;;;;;11.37;9.57;;;;;;;;;;5034992;28;20030;-58
2021/11/07 02:03:16;;;;;;;13.97;8.23;;;;;;;;;;5045503;28;20035;-58
2021/11/07 02:05:42;;;;;;;11.53;9.33;;;;;;;;;;5055085;28;20083;-58
2021/11/07 02:08:08;;;;;;;11.77;8.33;;;;;;;;;;5054274;28;20057;-58
2021/11/07 02:10:35;;;;;;;9.43;7.83;;;;;;;;;;5054799;28;20029;-58
2021/11/07 02:13:01;;;;;;;12.83;7.97;;;;;;;;;;5055041;28;20066;-58
2021/11/07 02:15:27;;;;;;;12.30;7.23;;;;;;;;;;5055308;28;20040;-58
2021/11/07 02:17:53;;;;;;;12.10;7.50;;;;;;;;;;5054070;28;20025;-58
2021/11/07 02:20:29;;;;;;;13.57;9.83;;;;;;;;;;5054875;28;20045;-58
2021/11/07 02:22:55;;;;;;;10.93;9.23;;;;;;;;;;5054555;28;20116;-58
2021/11/07 02:25:21;;;;;;;13.23;9.83;;;;;;;;;;5054893;28;20021;-58
2021/11/07 02:27:47;;;;;;;13.50;10.23;;;;;;;;;;5053913;28;20112;-58
2021/11/07 02:30:15;;;;;;;9.03;7.57;;;;;;;;;;5054622;28;20029;-58
2021/11/07 02:32:42;;;;;;;10.17;7.43;;;;;;;;;;5054402;28;20033;-58
2021/11/07 02:35:08;;;;;;;17.03;9.53;;;;;;;;;;5054567;28;20040;-58
2021/11/07 02:37:34;;;;;;;29.23;9.17;;;;;;;;;;5053650;28;20025;-58
2021/11/07 02:40:00;;;;;;;14.13;8.87;;;;;;;;;;5054499;28;20190;-58
2021/11/07 02:42:26;;;;;;;15.30;10.13;;;;;;;;;;5054475;28;20557;-58
2021/11/07 02:44:52;;;;;;;20.07;9.03;;;;;;;;;;5054360;28;20459;-58
2021/11/07 02:47:18;;;;;;;29.60;11.43;;;;;;;;;;5053510;28;20028;-58
2021/11/07 02:49:45;;;;;;;31.07;10.67;;;;;;;;;;5054279;28;20033;-58
2021/11/07 02:52:13;;;;;;;20.67;10.57;;;;;;;;;;5054015;28;20033;-58
2021/11/07 02:54:39;;;;;;;14.17;10.20;;;;;;;;;;5054474;28;20029;-58
2021/11/07 02:57:07;;;;;;;11.70;9.80;;;;;;;;;;5053579;28;20060;-58
2021/11/07 02:59:36;;;;;;;17.47;12.57;;;;;;;;;;5054157;28;20025;-58
2021/11/07 03:02:03;;;;;;;12.63;10.30;;;;;;;;;;5052668;28;20127;-59
2021/11/07 03:04:30;;;;;;;12.87;10.13;;;;;;;;;;5053965;28;20029;-58
2021/11/07 03:06:56;;;;;;;11.47;10.27;;;;;;;;;;5053025;28;20025;-58
2021/11/07 03:09:24;;;;;;;15.20;11.27;;;;;;;;;;5053949;28;20090;-58
2021/11/07 03:11:52;;;;;;;16.67;12.63;;;;;;;;;;5053777;28;20082;-58
2021/11/07 03:14:26;;;;;;;13.10;10.67;;;;;;;;;;5053812;28;20475;-58
2021/11/07 03:16:52;;;;;;;11.93;9.30;;;;;;;;;;5052930;28;20021;-58
2021/11/07 03:19:20;;;;;;;16.37;11.90;;;;;;;;;;5053317;28;20033;-58
2021/11/07 03:21:46;;;;;;;12.60;10.10;;;;;;;;;;5053866;28;20024;-58
2021/11/07 03:24:13;;;;;;;16.63;11.00;;;;;;;;;;5053659;28;20025;-58
2021/11/07 03:26:39;;;;;;;11.13;9.90;;;;;;;;;;5052833;28;20021;-58
2021/11/07 03:29:08;;;;;;;12.43;9.00;;;;;;;;;;5053551;28;20040;-58
2021/11/07 03:31:41;;;;;;;16.70;10.83;;;;;;;;;;5053413;28;20041;-58
2021/11/07 03:34:11;;;;;;;16.00;8.73;;;;;;;;;;5052984;28;20033;-58
2021/11/07 03:36:44;;;;;;;12.98;10.05;;;;;;;;;;5052814;28;20387;-58
2021/11/07 03:39:11;;;;;;;10.90;9.80;;;;;;;;;;5053462;28;20163;-57
2021/11/07 03:41:38;;;;;;;11.47;10.13;;;;;;;;;;5053275;28;20025;-58
2021/11/07 03:44:04;;;;;;;10.67;8.33;;;;;;;;;;5053096;28;20107;-58
2021/11/07 03:46:30;;;;;;;14.03;9.37;;;;;;;;;;5052762;28;20037;-58
2021/11/07 03:48:57;;;;;;;12.47;8.90;;;;;;;;;;5052959;28;20378;-58
2021/11/07 03:51:24;;;;;;;10.87;9.77;;;;;;;;;;5053390;28;20383;-58
2021/11/07 03:53:50;;;;;;;17.83;9.57;;;;;;;;;;5053174;28;20364;-58
2021/11/07 03:56:16;;;;;;;11.20;9.83;;;;;;;;;;5052601;28;20036;-58
2021/11/07 03:58:43;;;;;;;14.27;10.17;;;;;;;;;;5053233;28;20044;-58
2021/11/07 04:01:09;;;;;;;11.17;8.20;;;;;;;;;;5053076;28;20123;-58
2021/11/07 04:03:35;;;;;;;11.37;10.00;;;;;;;;;;5053051;28;20025;-58
2021/11/07 04:06:01;;;;;;;11.53;8.53;;;;;;;;;;5052906;28;20104;-58
2021/11/07 04:08:28;;;;;;;11.00;9.30;;;;;;;;;;5052087;28;20055;-58
2021/11/07 04:10:54;;;;;;;15.00;9.60;;;;;;;;;;5052813;28;20036;-58
2021/11/07 04:13:20;;;;;;;11.97;9.43;;;;;;;;;;5052350;28;20067;-58
2021/11/07 04:15:46;;;;;;;10.87;8.63;;;;;;;;;;5052832;28;20032;-58
2021/11/07 04:18:12;;;;;;;16.87;10.60;;;;;;;;;;5052030;28;20025;-58
2021/11/07 04:20:39;;;;;;;12.97;10.27;;;;;;;;;;5052570;28;20104;-58
2021/11/07 04:23:05;;;;;;;13.57;10.40;;;;;;;;;;5052501;28;20032;-57
2021/11/07 04:25:31;;;;;;;10.33;9.30;;;;;;;;;;5052314;28;20364;-58
2021/11/07 04:27:58;;;;;;;11.77;10.03;;;;;;;;;;5051446;28;20025;-58
2021/11/07 04:30:24;;;;;;;11.53;10.33;;;;;;;;;;5047496;28;20497;-58
2021/11/07 04:32:50;;;;;;;10.53;9.43;;;;;;;;;;5052322;28;20407;-58
2021/11/07 04:35:16;;;;;;;12.93;9.93;;;;;;;;;;5052289;28;20033;-58
2021/11/07 04:37:43;;;;;;;16.93;9.93;;;;;;;;;;5051571;28;20033;-58
2021/11/07 04:40:10;;;;;;;12.50;9.87;;;;;;;;;;5052156;28;20025;-58
2021/11/07 04:42:36;;;;;;;13.50;11.13;;;;;;;;;;5051724;28;20110;-58
2021/11/07 04:45:02;;;;;;;10.90;9.60;;;;;;;;;;5051607;28;20024;-58
2021/11/07 04:47:28;;;;;;;14.10;9.37;;;;;;;;;;5051521;28;20442;-58
2021/11/07 04:49:54;;;;;;;15.33;10.80;;;;;;;;;;5071470;28;20039;-58
2021/11/07 04:52:21;;;;;;;15.97;11.33;;;;;;;;;;5072330;28;20101;-58
2021/11/07 04:54:47;;;;;;;12.70;10.33;;;;;;;;;;5072043;28;20115;-58
2021/11/07 04:57:13;;;;;;;13.10;10.70;;;;;;;;;;5059462;28;20016;-58
2021/11/07 04:59:39;;;;;;;14.13;10.17;;;;;;;;;;5052236;28;20036;-58
2021/11/07 05:02:06;;;;;;;10.83;9.57;;;;;;;;;;5051148;28;20375;-58
2021/11/07 05:04:32;;;;;;;13.17;9.77;;;;;;;;;;5052601;28;20028;-58
2021/11/07 05:06:57;;;;;;;11.60;8.77;;;;;;;;;;5071297;28;20025;-58
2021/11/07 05:09:24;;;;;;;10.80;9.47;;;;;;;;;;5071972;28;20382;-57
2021/11/07 05:11:50;;;;;;;13.00;9.93;;;;;;;;;;5071948;28;20024;-58
2021/11/07 05:14:16;;;;;;;11.67;9.60;;;;;;;;;;5072017;28;20071;-58
2021/11/07 05:16:42;;;;;;;11.97;10.40;;;;;;;;;;5064169;28;20025;-58
2021/11/07 05:19:08;;;;;;;13.30;11.37;;;;;;;;;;5072107;28;20040;-58
2021/11/07 05:21:34;;;;;;;13.53;9.87;;;;;;;;;;5071918;28;20024;-57
2021/11/07 05:24:00;;;;;;;15.77;11.17;;;;;;;;;;5071798;28;20033;-58
2021/11/07 05:26:26;;;;;;;12.23;9.37;;;;;;;;;;5054688;28;20041;-58
2021/11/07 05:28:52;;;;;;;15.13;10.50;;;;;;;;;;5051510;28;20035;-58
2021/11/07 05:31:18;;;;;;;11.30;9.60;;;;;;;;;;5051930;28;20037;-58
2021/11/07 05:33:44;;;;;;;11.63;9.73;;;;;;;;;;5051799;28;20024;-58
2021/11/07 05:36:12;;;;;;;16.53;10.60;;;;;;;;;;5064551;28;20328;-58
2021/11/07 05:38:38;;;;;;;14.77;11.30;;;;;;;;;;5071275;28;20382;-58
2021/11/07 05:41:04;;;;;;;16.57;10.07;;;;;;;;;;5071805;28;20029;-58
2021/11/07 05:43:30;;;;;;;15.97;10.90;;;;;;;;;;5071875;28;20299;-58
2021/11/07 05:45:56;;;;;;;14.67;12.00;;;;;;;;;;5059993;28;20037;-58
2021/11/07 05:48:22;;;;;;;14.17;11.30;;;;;;;;;;5050912;28;20110;-58
2021/11/07 05:50:48;;;;;;;14.20;10.30;;;;;;;;;;5051619;28;20048;-58
2021/11/07 05:53:14;;;;;;;15.40;10.73;;;;;;;;;;5051500;28;20372;-58
2021/11/07 05:55:40;;;;;;;10.53;8.90;;;;;;;;;;5060254;28;20039;-58
2021/11/07 05:58:06;;;;;;;13.83;10.47;;;;;;;;;;5074608;28;20036;-58
2021/11/07 06:00:32;;;;;;;10.13;8.00;;;;;;;;;;5075247;28;20115;-58
2021/11/07 06:03:01;;;;;;;14.00;10.07;;;;;;;;;;5067435;28;20413;-58
2021/11/07 06:05:27;;;;;;;11.80;8.43;;;;;;;;;;5075085;28;20028;-58
2021/11/07 06:07:53;;;;;;;10.00;8.17;;;;;;;;;;5074111;28;20512;-58
2021/11/07 06:10:20;;;;;;;13.87;10.07;;;;;;;;;;5074940;28;20068;-57
2021/11/07 06:12:46;;;;;;;11.27;8.93;;;;;;;;;;5075299;28;20036;-58
2021/11/07 06:15:12;;;;;;;11.93;9.70;;;;;;;;;;5056560;28;20029;-58
2021/11/07 06:17:38;;;;;;;11.93;8.27;;;;;;;;;;5054356;28;20029;-58
2021/11/07 06:20:05;;;;;;;11.83;10.43;;;;;;;;;;5054880;28;20025;-58
2021/11/07 06:22:31;;;;;;;11.60;10.13;;;;;;;;;;5054698;28;20460;-57
2021/11/07 06:24:58;;;;;;;12.17;10.07;;;;;;;;;;5067885;28;20040;-58
2021/11/07 06:27:28;;;;;;;11.90;9.87;;;;;;;;;;5074356;28;20024;-58
2021/11/07 06:29:54;;;;;;;17.53;9.03;;;;;;;;;;5074728;28;20035;-57
2021/11/07 06:32:20;;;;;;;14.67;9.80;;;;;;;;;;5074683;28;20029;-58
2021/11/07 06:34:47;;;;;;;11.17;9.60;;;;;;;;;;5057492;28;20032;-58
2021/11/07 06:37:13;;;;;;;11.70;10.43;;;;;;;;;;5053633;28;20021;-57
2021/11/07 06:39:39;;;;;;;14.70;12.80;;;;;;;;;;5054426;28;20044;-57
2021/11/07 06:42:06;;;;;;;16.67;10.83;;;;;;;;;;5053897;28;20033;-57
2021/11/07 06:44:34;;;;;;;14.60;10.83;;;;;;;;;;5058392;28;20086;-57
2021/11/07 06:47:00;;;;;;;15.77;11.80;;;;;;;;;;5055698;28;20029;-57
2021/11/07 06:49:27;;;;;;;14.83;12.13;;;;;;;;;;5065809;28;20047;-58
2021/11/07 06:51:53;;;;;;;16.23;10.80;;;;;;;;;;5074358;28;20474;-57
2021/11/07 06:54:20;;;;;;;17.53;12.77;;;;;;;;;;5074384;28;20032;-58
2021/11/07 06:56:46;;;;;;;17.23;11.53;;;;;;;;;;5065836;28;20102;-57
2021/11/07 06:59:12;;;;;;;16.87;12.80;;;;;;;;;;5054153;28;20025;-58
2021/11/07 07:01:38;;;;;;;15.73;12.47;;;;;;;;;;5066070;28;20066;-57
2021/11/07 07:04:04;;;;;;;17.93;12.57;;;;;;;;;;5057166;28;20090;-58
2021/11/07 07:06:31;;;;;;;13.97;11.83;;;;;;;;;;5053728;28;20103;-58
2021/11/07 07:09:22;;;;;;;14.53;11.17;;;;;;;;;;5054212;28;20580;-57
2021/11/07 07:11:51;;;;;;;17.30;13.27;;;;;;;;;;5053102;28;20497;-58
2021/11/07 07:17:18;;;;;;;17.47;11.43;;;;;;;;;;5053551;28;20040;-58
2021/11/07 07:19:56;;;;;;;12.82;11.43;;;;;;;;;;5053879;28;20037;-58
2021/11/07 07:25:27;;;;;;;13.47;11.37;;;;;;;;;;5054050;28;20040;-59
2021/11/07 07:31:11;;;;;;;13.63;11.83;;;;;;;;;;5053576;28;20035;-59
2021/11/07 07:36:07;;;;;;;19.83;14.33;;;;;;;;;;5053420;28;20170;-59
2021/11/07 07:38:33;;;;;;;16.15;14.13;;;;;;;;;;5052760;28;20154;-59
2021/11/07 07:40:59;;;;;;;16.03;12.00;;;;;;;;;;5051152;28;20025;-59
2021/11/07 07:43:26;;;;;;;17.63;12.87;;;;;;;;;;5044559;28;20059;-58
2021/11/07 07:45:55;;;;;;;19.70;13.17;;;;;;;;;;5055597;28;20083;-59
2021/11/07 07:48:22;;;;;;;17.73;13.87;;;;;;;;;;5052277;28;20090;-59
2021/11/07 07:50:48;;;;;;;18.57;13.00;;;;;;;;;;5060353;28;20530;-59
2021/11/07 07:53:15;;;;;;;19.57;12.53;;;;;;;;;;5055092;28;20025;-59
2021/11/07 07:55:41;;;;;;;21.92;13.88;;;;;;;;;;5073069;28;20455;-60
2021/11/07 07:58:07;;;;;;;18.13;12.38;;;;;;;;;;5070838;28;20047;-59
2021/11/07 08:00:33;;;;;;;15.85;13.15;;;;;;;;;;5072664;28;20025;-59
2021/11/07 08:02:59;;;;;;;23.08;14.68;;;;;;;;;;5065125;28;20032;-59
2021/11/07 08:05:25;;;;;;;21.60;15.10;;;;;;;;;;5053501;28;20059;-60
2021/11/07 08:07:51;;;;;;;21.33;13.38;;;;;;;;;;5050036;28;20022;-59
2021/11/07 08:10:17;;;;;;;17.98;13.13;;;;;;;;;;5047420;28;20505;-60
2021/11/07 08:12:43;;;;;;;17.40;12.63;;;;;;;;;;5052321;28;20029;-59
2021/11/07 08:15:11;;;;;;;16.30;12.65;;;;;;;;;;5052396;28;20029;-59
2021/11/07 08:17:37;;;;;;;17.45;12.45;;;;;;;;;;5052171;28;20021;-59
2021/11/07 08:20:05;;;;;;;15.27;12.18;;;;;;;;;;5052335;28;20489;-59
2021/11/07 08:22:32;;;;;;;13.30;11.35;;;;;;;;;;5053877;28;20021;-60
2021/11/07 08:24:58;;;;;;;16.90;11.77;;;;;;;;;;5052493;28;20451;-60
2021/11/07 08:27:24;;;;;;;15.70;12.02;;;;;;;;;;5051678;28;20116;-59
2021/11/07 08:29:54;;;;;;;17.75;12.25;;;;;;;;;;5051825;28;20032;-59
2021/11/07 08:32:20;;;;;;;18.63;13.63;;;;;;;;;;5050157;28;20135;-59
2021/11/07 08:34:47;;;;;;;15.60;12.40;;;;;;;;;;5052401;28;20033;-59
2021/11/07 08:37:15;;;;;;;15.57;11.65;;;;;;;;;;5051689;28;20036;-59
2021/11/07 08:39:49;;;;;;;16.73;12.70;;;;;;;;;;5052188;28;20548;-59
2021/11/07 09:09:10;;;;;;;8.98;7.78;;;;;;;;;;5053762;28;20069;-58
2021/11/07 09:11:36;;;;;;;;;;;;;;;;;;5054815;28;20399;-58
2021/11/07 09:14:02;;;;;;;10.65;7.75;;;;;;;;;;5050038;28;19909;-58
2021/11/07 09:16:28;;;;;;;13.18;9.95;;;;;;;;;;5031452;28;20040;-59
2021/11/07 09:18:58;;;;;;;10.90;8.40;;;;;;;;;;5064095;28;20056;-59
2021/11/07 09:21:28;;;;;;;11.65;8.77;;;;;;;;;;5057436;28;20394;-59
2021/11/07 09:24:03;;;;;;;11.95;9.25;;;;;;;;;;5057549;28;20121;-59
2021/11/07 09:26:40;;;;;;;11.63;8.38;;;;;;;;;;5053700;28;20032;-58
2021/11/07 09:34:49;;;;;;;12.27;8.68;;;;;;;;;;5054829;28;20043;-59
2021/11/07 09:39:55;;;;;;;10.88;7.15;;;;;;;;;;5063347;28;20080;-59
2021/11/07 09:44:50;;;;;;;11.13;6.05;;;;;;;;;;5065406;28;20056;-59
2021/11/07 09:47:16;;;;;;;7.45;5.88;;;;;;;;;;5054955;28;20025;-58
2021/11/07 09:49:48;;;;;;;9.65;6.53;;;;;;;;;;5055648;28;20082;-59
2021/11/07 09:52:21;;;;;;;5.47;4.60;;;;;;;;;;5055587;28;20021;-58
2021/11/07 09:55:00;;;;;;;7.63;5.03;;;;;;;;;;5063526;28;20107;-58
2021/11/07 09:57:27;;;;;;;6.85;4.82;;;;;;;;;;5074421;28;20585;-58
2021/11/07 09:59:55;;;;;;;6.85;4.65;;;;;;;;;;5075403;28;20033;-59
2021/11/07 10:02:22;;;;;;;7.13;3.95;;;;;;;;;;5072527;28;20439;-58
2021/11/07 10:04:49;;;;;;;5.03;3.45;;;;;;;;;;5055454;28;20419;-59
2021/11/07 10:07:23;;;;;;;9.98;4.75;;;;;;;;;;5054371;28;20047;-59
2021/11/07 10:09:55;;;;;;;5.25;4.18;;;;;;;;;;5055003;28;20368;-59
2021/11/07 10:12:29;;;;;;;8.52;4.15;;;;;;;;;;5055272;28;20037;-60
2021/11/07 10:14:59;;;;;;;6.22;3.50;;;;;;;;;;5066448;28;20050;-59
2021/11/07 10:17:33;;;;;;;4.85;3.47;;;;;;;;;;5074035;28;20493;-60
2021/11/07 10:20:17;;;;;;;6.55;3.38;;;;;;;;;;5074865;28;20032;-57
2021/11/07 10:22:44;;;;;;;6.38;4.18;;;;;;;;;;5073795;28;20039;-58
2021/11/07 10:25:17;;;;;;;5.43;3.95;;;;;;;;;;5061501;28;20036;-58
2021/11/07 10:27:48;;;;;;;5.88;3.55;;;;;;;;;;5051216;28;20398;-58
2021/11/07 10:30:19;;;;;;;5.25;2.83;;;;;;;;;;5053782;28;20359;-58
2021/11/07 10:33:00;;;;;;;9.20;3.70;;;;;;;;;;5053111;28;20045;-58
2021/11/07 10:38:42;;;;;;;4.78;2.88;;;;;;;;;;5055067;28;20106;-58
2021/11/07 10:41:49;;;;;;;5.22;3.35;;;;;;;;;;5068979;28;20486;-58
2021/11/07 10:53:00;;;;;;;3.65;3.10;;;;;;;;;;5030831;28;20033;-58
2021/11/07 10:55:27;;;;;;;4.43;2.93;;;;;;;;;;5031481;28;20456;-58
2021/11/07 10:57:54;;;;;;;4.90;3.80;;;;;;;;;;5043316;28;20044;-58
2021/11/07 11:00:29;;;;;;;5.70;2.85;;;;;;;;;;5074259;28;20052;-57
2021/11/07 11:02:57;;;;;;;4.00;2.55;;;;;;;;;;5064435;28;20062;-58
2021/11/07 11:05:25;;;;;;;4.25;2.28;;;;;;;;;;5069642;28;20029;-58
2021/11/07 11:07:59;;;;;;;4.43;3.10;;;;;;;;;;5059210;28;20065;-58
2021/11/07 11:10:34;;;;;;;4.60;3.50;;;;;;;;;;5055103;28;20375;-58
2021/11/07 11:13:02;;;;;;;4.03;2.80;;;;;;;;;;5055024;28;20070;-58
2021/11/07 11:15:38;;;;;;;6.07;3.40;;;;;;;;;;5054238;28;20032;-57
2021/11/07 11:21:23;;;;;;;4.07;1.90;;;;;;;;;;5048816;28;20040;-58
2021/11/07 11:34:19;;;;;;;1.90;1.25;;;;;;;;;;5041842;28;20063;-58
2021/11/07 11:36:51;;;;;;;2.00;1.45;;;;;;;;;;5051961;28;20087;-58
2021/11/07 11:39:27;;;;;;;2.38;1.42;;;;;;;;;;5044543;28;20393;-58
2021/11/07 11:44:50;;;;;;;2.00;0.90;;;;;;;;;;4988461;28;20042;-58
2021/11/07 11:47:49;;;;;;;1.13;0.60;;;;;;;;;;5038825;28;20059;-58
2021/11/07 11:50:45;;;;;;;2.35;0.85;;;;;;;;;;5037884;28;20045;-58
2021/11/07 11:56:08;;;;;;;1.70;0.75;;;;;;;;;;5030572;28;20043;-59
2021/11/07 11:58:40;;;;;;;2.22;0.77;;;;;;;;;;5030016;28;20037;-58
2021/11/07 12:01:14;;;;;;;1.15;0.60;;;;;;;;;;5033682;28;20029;-58
2021/11/07 12:06:26;;;;;;;0.77;0.45;;;;;;;;;;5038754;28;20513;-58
2021/11/07 12:09:19;;;;;;;3.13;1.05;;;;;;;;;;5044876;28;20151;-58
2021/11/07 12:11:51;;;;;;;3.17;0.80;;;;;;;;;;5042124;28;20036;-58
2021/11/07 12:14:25;;;;;;;1.75;0.85;;;;;;;;;;5043827;28;20025;-58
2021/11/07 12:17:00;;;;;;;2.47;0.75;;;;;;;;;;5047156;28;20106;-58
2021/11/07 12:19:41;;;;;;;1.98;1.00;;;;;;;;;;5048306;28;20399;-58
2021/11/07 12:22:13;;;;;;;1.92;0.60;;;;;;;;;;5050384;28;20111;-58
2021/11/07 12:24:58;;;;;;;1.45;0.65;;;;;;;;;;5051878;28;20075;-58
2021/11/07 12:27:29;;;;;;;1.20;0.75;;;;;;;;;;5047740;28;20032;-58
2021/11/07 12:29:59;;;;;;;1.80;0.98;;;;;;;;;;5048218;28;20055;-58
2021/11/07 12:32:25;;;;;;;;;;;;;;;;;;5041443;28;20339;-58
2021/11/07 12:35:17;;;;;;;1.10;0.57;;;;;;;;;;5047367;28;19927;-58
2021/11/07 12:40:40;;;;;;;2.10;0.73;;;;;;;;;;5052517;28;20040;-58
2021/11/07 12:43:08;;;;;;;1.50;0.63;;;;;;;;;;5050964;28;20059;-58
2021/11/07 12:45:38;;;;;;;2.05;0.47;;;;;;;;;;5052105;28;20391;-58
2021/11/07 12:48:07;;;;;;;1.40;0.40;;;;;;;;;;5051464;28;20029;-58
2021/11/07 12:51:05;;;;;;;2.10;0.80;;;;;;;;;;5052395;28;20432;-58
2021/11/07 12:53:52;;;;;;;0.98;0.47;;;;;;;;;;5009013;28;20079;-58
2021/11/07 12:56:30;;;;;;;1.25;0.40;;;;;;;;;;5051429;28;20061;-59
2021/11/07 12:58:56;;;;;;;1.38;0.57;;;;;;;;;;5052025;28;20529;-58
2021/11/07 13:01:23;;;;;;;1.85;0.65;;;;;;;;;;5052166;28;20028;-58
2021/11/07 13:03:52;;;;;;;1.15;0.57;;;;;;;;;;5050364;28;20025;-58
2021/11/07 13:06:19;;;;;;;1.67;0.75;;;;;;;;;;5050544;28;20094;-58
2021/11/07 13:08:53;;;;;;;1.10;0.40;;;;;;;;;;5051636;28;20033;-58
2021/11/07 13:11:24;;;;;;;1.52;0.45;;;;;;;;;;5052103;28;20471;-59
2021/11/07 13:14:10;;;;;;;1.20;0.50;;;;;;;;;;5052025;28;20038;-58
2021/11/07 13:17:17;;;;;;;0.88;0.35;;;;;;;;;;5051162;28;20040;-58
2021/11/07 13:22:39;;;;;;;1.38;0.50;;;;;;;;;;5052045;28;20036;-59
2021/11/07 13:27:45;;;;;;;1.85;0.70;;;;;;;;;;5050949;28;20428;-59
2021/11/07 13:30:20;;;;;;;1.05;0.45;;;;;;;;;;5051897;28;20517;-59
2021/11/07 13:32:47;;;;;;;1.30;0.70;;;;;;;;;;5051678;28;20108;-59
2021/11/07 13:35:17;;;;;;;1.27;0.63;;;;;;;;;;5051598;28;20486;-59
2021/11/07 13:37:49;;;;;;;0.77;0.40;;;;;;;;;;5050869;28;20029;-59
2021/11/07 13:40:25;;;;;;;5.18;0.80;;;;;;;;;;5051399;28;20362;-59
2021/11/07 13:42:52;;;;;;;1.75;1.05;;;;;;;;;;5051710;28;20028;-57
2021/11/07 13:45:25;;;;;;;1.13;0.55;;;;;;;;;;5051377;28;20060;-59
2021/11/07 13:47:52;;;;;;;0.82;0.40;;;;;;;;;;5048789;28;20032;-59
2021/11/07 13:50:20;;;;;;;1.10;0.38;;;;;;;;;;5051687;28;20036;-59
2021/11/07 13:52:46;;;;;;;0.82;0.30;;;;;;;;;;5051635;28;20040;-59
2021/11/07 13:55:25;;;;;;;1.08;0.60;;;;;;;;;;5051444;28;20021;-56
2021/11/07 13:57:51;;;;;;;1.30;0.55;;;;;;;;;;5045009;28;20099;-58
2021/11/07 14:00:20;;;;;;;0.82;0.60;;;;;;;;;;5039748;28;20475;-58
2021/11/07 14:02:47;;;;;;;1.17;0.50;;;;;;;;;;5044457;28;20040;-58
2021/11/07 14:05:13;;;;;;;1.20;0.50;;;;;;;;;;5046313;28;20021;-58
2021/11/07 14:07:40;;;;;;;0.80;0.52;;;;;;;;;;5039191;28;20068;-58
2021/11/07 14:10:07;;;;;;;0.65;0.32;;;;;;;;;;5045106;28;20037;-58
2021/11/07 14:12:45;;;;;;;0.47;0.20;;;;;;;;;;5036739;28;20029;-58
2021/11/07 14:15:21;;;;;;;0.60;0.38;;;;;;;;;;5049926;28;20099;-57
2021/11/07 14:17:47;;;;;;;1.48;0.52;;;;;;;;;;5046447;28;20394;-58
2021/11/07 14:20:15;;;;;;;1.25;0.65;;;;;;;;;;5050823;28;20026;-58
2021/11/07 14:23:05;;;;;;;1.42;0.60;;;;;;;;;;5042514;28;20029;-58
2021/11/07 14:25:31;;;;;;;1.92;0.50;;;;;;;;;;5042329;28;20038;-58
2021/11/07 14:28:08;;;;;;;0.55;0.28;;;;;;;;;;5050711;28;20478;-58
2021/11/07 14:30:40;;;;;;;1.05;0.47;;;;;;;;;;5046292;28;20099;-58
2021/11/07 14:33:14;;;;;;;1.10;0.50;;;;;;;;;;5053703;28;20036;-58
2021/11/07 14:35:43;;;;;;;0.55;0.30;;;;;;;;;;5046601;28;20033;-59
2021/11/07 14:38:24;;;;;;;1.42;0.70;;;;;;;;;;5051988;28;20025;-59
2021/11/07 14:41:04;;;;;;;1.40;0.50;;;;;;;;;;5045569;28;20038;-59
2021/11/07 14:55:05;;;;;;;0.90;0.38;;;;;;;;;;5053339;28;20593;-59
2021/11/07 15:00:06;;;;;;;1.75;0.52;;;;;;;;;;5043873;28;20494;-59
2021/11/07 15:02:45;;;;;;;1.23;0.40;;;;;;;;;;5049431;28;20040;-59
2021/11/07 15:07:55;;;;;;;0.98;0.50;;;;;;;;;;5048739;28;20029;-59
2021/11/07 15:13:11;;;;;;;2.07;1.17;;;;;;;;;;5043115;28;20064;-59
2021/11/07 15:18:31;;;;;;;1.17;0.70;;;;;;;;;;5051617;28;20029;-59
2021/11/07 15:21:04;;;;;;;4.03;0.88;;;;;;;;;;5056221;28;20036;-59
2021/11/07 15:23:39;;;;;;;1.58;0.70;;;;;;;;;;5065728;28;20099;-59
2021/11/07 15:26:20;;;;;;;2.53;0.60;;;;;;;;;;5071158;28;20482;-59
2021/11/07 15:28:53;;;;;;;1.23;0.50;;;;;;;;;;5054159;28;20382;-58
2021/11/07 15:31:19;;;;;;;2.65;0.70;;;;;;;;;;5064388;28;20025;-58
2021/11/07 15:33:45;;;;;;;2.35;0.65;;;;;;;;;;5053432;28;20028;-60
2021/11/07 15:36:11;;;;;;;1.63;0.93;;;;;;;;;;5047740;28;20070;-60
2021/11/07 15:38:38;;;;;;;1.27;0.70;;;;;;;;;;5053356;28;20025;-58
2021/11/07 15:41:09;;;;;;;1.23;0.70;;;;;;;;;;5053198;28;20088;-59
2021/11/07 15:43:35;;;;;;;1.15;0.57;;;;;;;;;;5053357;28;20471;-58
2021/11/07 15:46:12;;;;;;;1.85;1.08;;;;;;;;;;5052975;28;20439;-60
2021/11/07 15:48:44;;;;;;;2.95;1.55;;;;;;;;;;5053196;28;20040;-59
2021/11/07 15:53:57;;;;;;;3.00;1.08;;;;;;;;;;5052940;28;20029;-59
2021/11/07 16:04:34;;;;;;;2.40;1.20;;;;;;;;;;5052631;28;20094;-59
2021/11/07 16:12:16;;;;;;;1.67;1.02;;;;;;;;;;5042661;28;20040;-59
2021/11/07 16:14:56;;;;;;;3.58;1.45;;;;;;;;;;5049362;28;20029;-59
2021/11/07 16:17:26;;;;;;;2.50;1.20;;;;;;;;;;5043054;28;20115;-60
2021/11/07 16:19:53;;;;;;;2.90;1.90;;;;;;;;;;5040637;28;20056;-59
2021/11/07 16:22:20;;;;;;;1.92;1.15;;;;;;;;;;5043214;28;20033;-59
2021/11/07 16:24:48;;;;;;;2.92;1.55;;;;;;;;;;5045753;28;20037;-59
2021/11/07 16:27:15;;;;;;;1.40;0.85;;;;;;;;;;5048751;28;20105;-59
2021/11/07 16:29:41;;;;;;;2.30;1.20;;;;;;;;;;5049064;28;20489;-60
2021/11/07 16:32:19;;;;;;;1.83;1.00;;;;;;;;;;5047097;28;20094;-60
2021/11/07 16:34:53;;;;;;;4.55;1.13;;;;;;;;;;5048755;28;20036;-60
2021/11/07 16:37:23;;;;;;;2.03;1.13;;;;;;;;;;5040922;28;20025;-59
2021/11/07 16:40:05;;;;;;;5.15;1.10;;;;;;;;;;5049636;28;20112;-59
2021/11/07 16:42:32;;;;;;;4.20;1.58;;;;;;;;;;5045535;28;20028;-59
2021/11/07 16:44:59;;;;;;;2.80;1.70;;;;;;;;;;5047750;28;20459;-59
2021/11/07 16:47:29;;;;;;;4.65;1.88;;;;;;;;;;5046462;28;20040;-60
2021/11/07 16:50:00;;;;;;;1.73;1.27;;;;;;;;;;5048210;28;20100;-59
2021/11/07 16:52:29;;;;;;;3.08;1.42;;;;;;;;;;5039849;28;20410;-59
2021/11/07 16:55:05;;;;;;;2.00;1.20;;;;;;;;;;5033278;28;20037;-60
2021/11/07 16:57:33;;;;;;;1.85;1.33;;;;;;;;;;5033860;28;20154;-59
2021/11/07 17:05:45;;;;;;;2.33;1.38;;;;;;;;;;5028230;28;20391;-60
2021/11/07 17:08:12;;;;;;;2.30;1.45;;;;;;;;;;5037881;28;20457;-59
2021/11/07 17:10:39;;;;;;;2.60;1.90;;;;;;;;;;5048153;28;20036;-60
2021/11/07 17:13:09;;;;;;;2.55;1.88;;;;;;;;;;5049913;28;20036;-59
2021/11/07 17:15:42;;;;;;;3.17;2.15;;;;;;;;;;5049936;28;20044;-59
2021/11/07 17:26:25;;;;;;;4.00;1.90;;;;;;;;;;5052031;28;20086;-59
2021/11/07 17:33:29;;;;;;;3.30;2.22;;;;;;;;;;5051417;28;20482;-59
2021/11/07 17:36:06;;;;;;;3.47;2.45;;;;;;;;;;5051737;28;20041;-59
2021/11/07 17:38:47;;;;;;;3.65;2.72;;;;;;;;;;5051281;28;20114;-59